Home > Products > Valid Products > TAF

000
FTUS43 KLBF 300500
TAFLBF
TAF
KLBF 300521Z 3006/3106 VRB04KT P6SM SKC
     FM301000 VRB03KT 2SM BCFG FEW100
     FM301400 16008KT P6SM SCT200
     FM310000 17011KT P6SM SCT050=



000
FTUS43 KLBF 300500
TAFVTN
TAF
KVTN 300521Z 3006/3106 VRB03KT P6SM SKC
     FM301000 VRB03KT 3SM BR SKC
     FM301500 15008KT P6SM SCT200
     FM310000 17011KT P6SM SCT050=



000
FTUS43 KLBF 300000 AAA
TAFLBF
TAF AMD
KLBF 300015Z 3000/3024 VRB06KT P6SM BKN100
     FM300030 VRB06KT P6SM SCT080 BKN250
     FM300800 VRB04KT 3SM BR SCT100
     FM301400 16008KT P6SM SCT200=



000
FTUS43 KLBF 292300
TAFVTN
TAF
KVTN 292337Z 3000/3024 35012G22KT P6SM SCT080
     FM300300 29006KT P6SM SCT100 BKN150
     FM300800 VRB04KT 3SM BR SKC
     FM301500 15008KT P6SM SCT200=



000
FTUS43 KLBF 292300
TAFLBF
TAF
KLBF 292337Z 3000/3024 VRB13G26KT P6SM VCTS BKN080CB
     FM300030 VRB06KT P6SM SCT080 BKN250
     FM300800 VRB04KT 3SM BR SCT100
     FM301400 16008KT P6SM SCT200=



000
FTUS43 KLBF 292300 AAA
TAFLBF
TAF AMD
KLBF 292325Z 2923/3018 01011G17KT P6SM VCTS SCT070CB BKN250
      TEMPO 2923/2924 VRB13G22KT 3SM TSRA BKN070CB
     FM300000 36008KT P6SM BKN100
     FM300800 VRB06KT 5SM BR SCT100
     FM301400 16008KT P6SM SCT200=



000
FTUS43 KLBF 291900 AAA
TAFLBF
TAF AMD
KLBF 291902Z 2919/3018 01011G17KT P6SM FEW250
     FM300000 36008KT P6SM BKN100
     FM300800 VRB06KT 5SM BR SCT100
     FM301400 16008KT P6SM SCT200=



000
FTUS43 KLBF 291700
TAFLBF
TAF
KLBF 291735Z 2918/3018 33011KT P6SM FEW250
     FM300000 36008KT P6SM BKN100
     FM300800 VRB06KT 5SM BR SCT100
     FM301400 16008KT P6SM SCT200=



000
FTUS43 KLBF 291700
TAFVTN
TAF
KVTN 291735Z 2918/3018 34012G18KT P6SM SCT100
     FM292200 35010KT P6SM BKN100
      TEMPO 3000/3003 5SM -TSRA BKN070CB
     FM300300 29006KT P6SM SCT100 BKN150
     FM300800 VRB06KT 5SM BR SKC
     FM301500 15008KT P6SM SCT200=



000
FTUS43 KLBF 291100
TAFLBF
TAF
KLBF 291132Z 2912/3012 VRB04KT P6SM SCT250
     FM291500 35010KT P6SM SCT250
     FM291800 33011G19KT P6SM SCT250
     FM292200 35010KT P6SM BKN100
     FM300800 VRB06KT P6SM SCT250=



000
FTUS43 KLBF 291100
TAFVTN
TAF
KVTN 291132Z 2912/3012 26003KT P6SM SCT250
     FM291800 34012KT P6SM SCT100
     FM292200 35010KT P6SM BKN100
     FM300200 35006KT P6SM SCT100 BKN150
     FM300700 VRB06KT P6SM SKC=



000
FTUS43 KLBF 290500
TAFLBF
TAF
KLBF 290523Z 2906/3006 33005KT P6SM SCT025
     FM290900 VRB04KT 3SM BCFG SCT100
     FM291500 35010KT P6SM SCT250
     FM300100 VRB06KT P6SM SCT250=



000
FTUS43 KLBF 290500
TAFVTN
TAF
KVTN 290523Z 2906/3006 26003KT P6SM BKN110
     FM291200 32008KT P6SM SCT100 BKN250=



000
FTUS43 KLBF 290200 AAA
TAFLBF
TAF AMD
KLBF 290248Z 2903/2924 31005KT P6SM BKN026 OVC120
      TEMPO 2903/2905 SCT026 OVC120
     FM290500 34006KT P6SM OVC100
     FM291200 VRB04KT P6SM SCT100
     FM291500 33010KT P6SM SCT250=



000
FTUS43 KLBF 282300
TAFVTN
TAF
KVTN 282336Z 2900/2924 34010KT P6SM VCTS BKN050CB BKN120
      TEMPO 2900/2902 2SM +TSRA BKN035CB
     FM290200 VRB06KT P6SM OVC050
     FM291200 32008KT P6SM SCT100 BKN250=



000
FTUS43 KLBF 282300
TAFLBF
TAF
KLBF 282336Z 2900/2924 28010KT P6SM SCT045
     FM290500 34006KT P6SM OVC100
     FM291200 VRB04KT P6SM SCT100
     FM291500 33010KT P6SM SCT250=



000
FTUS43 KLBF 282300 AAA
TAFLBF
TAF AMD
KLBF 282301Z 2823/2918 29007KT P6SM FEW020 BKN050
     FM290500 34006KT P6SM OVC100
     FM291200 VRB04KT P6SM SCT100=



000
FTUS43 KLBF 282200 AAA
TAFVTN
TAF AMD
KVTN 282251Z 2823/2918 35009KT P6SM FEW050
     FM282330 VRB11G21KT P6SM VCTS SCT040CB BKN120
      TEMPO 2900/2901 2SM +TSRA BKN035CB
     FM290200 VRB06KT P6SM OVC050
     FM291200 32008KT P6SM SCT100=



000
FTUS43 KLBF 281700
TAFVTN
TAF
KVTN 281728Z 2818/2918 36008KT P6SM BKN020 OVC050
      TEMPO 2818/2822 3SM -TSRA BKN020CB
     FM290000 VRB06KT P6SM OVC050
     FM290200 VRB06KT P6SM BKN250
     FM291200 32008KT P6SM SCT100=



000
FTUS43 KLBF 281700
TAFLBF
TAF
KLBF 281728Z 2818/2918 29007KT P6SM FEW020 SCT060
     FM282100 31008KT P6SM BKN050
      TEMPO 2823/2903 3SM -TSRA BKN030CB
     FM290500 34006KT P6SM OVC100
     FM291200 VRB04KT P6SM SCT100=



000
FTUS43 KLBF 281500 AAD
TAFVTN
TAF AMD
KVTN 281558Z 2816/2912 36008KT P6SM BKN020 OVC050
      TEMPO 2818/2822 -SHRA
     FM282200 03007KT P6SM OVC050
     FM290200 VRB06KT P6SM BKN250=



000
FTUS43 KLBF 281400 AAA
TAFLBF
TAF AMD
KLBF 281435Z 2815/2912 29007KT P6SM FEW020 SCT060
     FM282100 31008KT P6SM BKN120
     FM290300 34006KT P6SM BKN050 OVC150=



000
FTUS43 KLBF 281400 AAC
TAFVTN
TAF AMD
KVTN 281427Z 2814/2912 VRB05KT P6SM SCT007 OVC014
      TEMPO 2814/2816 BKN007
     FM281600 36008KT P6SM SCT015 OVC050
      TEMPO 2818/2822 -SHRA OVC050
     FM282200 03007KT P6SM OVC050
     FM290200 VRB06KT P6SM BKN250=



000
FTUS43 KLBF 281200 AAB
TAFVTN
TAF AMD
KVTN 281248Z 2813/2912 VRB06KT 6SM BR BKN014
      TEMPO 2813/2816 1SM BR OVC002
     FM281600 36008KT P6SM SCT015 OVC050
      TEMPO 2818/2822 -SHRA OVC050
     FM282200 03007KT P6SM OVC050
     FM290200 VRB06KT P6SM BKN250=



000
FTUS43 KLBF 281200 AAA
TAFVTN
TAF AMD
KVTN 281222Z 2812/2912 VRB06KT 6SM BR BKN014
      TEMPO 2812/2816 2SM BR OVC003
     FM281600 36008KT P6SM SCT015 OVC050
      TEMPO 2818/2822 -SHRA OVC050
     FM282200 03007KT P6SM OVC050
     FM290200 VRB06KT P6SM BKN250=



000
FTUS43 KLBF 281200 AAA
TAFLBF
TAF AMD
KLBF 281220Z 2812/2912 27009KT P6SM SCT100
      TEMPO 2812/2816 3SM BR OVC012
     FM282100 31008KT P6SM BKN120 PROB30 2821/2903 4SM -TSRA
      BKN050CB
     FM290300 34006KT P6SM BKN050 OVC150=



000
FTUS43 KLBF 281100
TAFLBF
TAF
KLBF 281120Z 2812/2912 27009KT P6SM OVC100
      TEMPO 2812/2816 3SM BR OVC012
     FM282100 31008KT P6SM BKN120 PROB30 2821/2903 4SM -TSRA
      BKN050CB
     FM290300 34006KT P6SM BKN050 OVC150=



000
FTUS43 KLBF 281100
TAFVTN
TAF
KVTN 281120Z 2812/2912 VRB06KT 6SM BR BKN014
      TEMPO 2812/2816 2SM BR OVC007
     FM281700 36008KT P6SM SCT015 OVC050
      TEMPO 2818/2822 -SHRA OVC050
     FM282200 03007KT P6SM OVC050
     FM290200 VRB06KT P6SM BKN250=



000
FTUS43 KLBF 280900 AAA
TAFLBF
TAF AMD
KLBF 280958Z 2810/2906 07009KT P6SM OVC100
      TEMPO 2810/2814 3SM BR OVC012
     FM281500 31008KT P6SM SCT011 BKN200=



000
FTUS43 KLBF 280500 CCB
TAFLBF
TAF COR
KLBF 280550Z 2806/2906 VRB06KT 5SM TSRA BKN015 OVC035CB
      TEMPO 2806/2810 1SM +TSRA BKN015 OVC035CB
     FM281100 VRB04KT 3SM BR OVC011
     FM281500 31008KT P6SM SCT011 BKN200=



000
FTUS43 KLBF 280500 CCA
TAFLBF
TAF COR
KLBF 280548Z 2806/2906 VRB06KT 5SM TSRA BKN015 OVC035CB
      TEMPO 2807/2810 1SM +TSRA BKN015 OVC035CB
     FM281100 VRB04KT 3SM BR OVC011
     FM281500 31008KT P6SM SCT011 BKN200=



000
FTUS43 KLBF 280500 CCA
TAFVTN
TAF COR
KVTN 280523Z 2806/2906 09008KT 3SM BR OVC004
     FM281000 11004KT 1SM BR BKN003
     FM281700 36008KT P6SM SCT008 OVC100=



000
FTUS43 KLBF 280500
TAFVTN
TAF
KVTN 280520Z 2806/2906 09008KT P6SM FEW020 SCT029 SCT035
     FM281000 11004KT 2SM BR BKN008
     FM281700 36008KT P6SM SCT008 OVC100=



000
FTUS43 KLBF 280500
TAFLBF
TAF
KLBF 280520Z 2806/2906 13006KT P6SM OVC015
     FM280800 VRB06KT 5SM TSRA BKN015 OVC035CB
      TEMPO 2808/2810 2SM +TSRA BKN015 OVC035CB
     FM281100 VRB04KT 3SM BR OVC011
     FM281500 31008KT P6SM SCT011 BKN200=



000
FTUS43 KLBF 280300 AAB
TAFLBF
TAF AMD
KLBF 280348Z 2804/2824 13003KT P6SM BKN017 OVC023
     FM280800 13008KT 5SM TSRA BKN015 OVC035CB
      TEMPO 2808/2810 2SM +TSRA BKN015 OVC035CB
     FM281100 31004KT 3SM BR OVC070
     FM281500 32008KT P6SM OVC200=



000
FTUS43 KLBF 280200 AAA
TAFVTN
TAF AMD
KVTN 280258Z 2803/2824 VRB06KT 3SM SHRA BKN021 OVC070
      TEMPO 2803/2805 5SM -SHRA BKN021
     FM280500 VRB06KT 6SM -RA BKN015
     FM281100 11004KT 2SM BR BKN008
     FM281700 36008KT P6SM SCT008 OVC100=



000
FTUS43 KLBF 280200 AAA
TAFLBF
TAF AMD
KLBF 280254Z 2803/2824 11007KT P6SM BKN027 OVC080
     FM280800 13008KT 5SM TSRA BKN015 OVC035CB
      TEMPO 2808/2810 2SM +TSRA BKN015 OVC035CB
     FM281100 31004KT 3SM BR OVC070
     FM281500 32008KT P6SM OVC200=



000
FTUS43 KLBF 272300
TAFVTN
TAF
KVTN 272323Z 2800/2824 17012KT P6SM VCSH SCT021 SCT100 BKN120
     FM280700 11008KT P6SM VCTS SCT015 BKN030CB
      TEMPO 2807/2811 2SM +TSRA BKN025CB
     FM281100 11004KT 2SM BR BKN008
     FM281700 36008KT P6SM SCT008 OVC100=



000
FTUS43 KLBF 272300
TAFLBF
TAF
KLBF 272323Z 2800/2824 11013KT P6SM VCTS SCT017 BKN025CB OVC040
      TEMPO 2800/2803 2SM +TSRA SCT025 OVC040CB
     FM280300 VRB05KT P6SM BKN050
     FM280900 31004KT 3SM BR OVC070
     FM281500 32008KT P6SM OVC200=



000
FTUS43 KLBF 272300 AAB
TAFLBF
TAF AMD
KLBF 272301Z 2723/2818 12013G19KT P6SM SCT021 BKN050
     FM272345 VRB14G26KT P6SM VCTS SCT015 OVC050CB
      TEMPO 2800/2804 2SM +TSRA SCT015 OVC050CB
     FM280800 34005KT P6SM BKN050=



000
FTUS43 KLBF 272000 AAA
TAFLBF
TAF AMD
KLBF 272038Z 2721/2818 12010KT P6SM SCT015 BKN050
      TEMPO 2721/2723 12014G20KT P6SM -SHRA SCT010 BKN015
     FM272300 12009KT P6SM VCTS SCT015 BKN050CB
      TEMPO 2800/2804 2SM +TSRA SCT015 OVC050CB
     FM280800 34005KT P6SM BKN050=



000
FTUS43 KLBF 271800 CCA
TAFLBF
TAF COR
KLBF 271837Z 2719/2818 12007KT P6SM SCT050 BKN100
      TEMPO 2719/2721 11010KT P6SM -SHRA BKN015
     FM272300 12009KT P6SM VCTS SCT015 BKN050CB
      TEMPO 2800/2804 2SM +TSRA SCT015 OVC050CB
     FM280800 34005KT P6SM BKN050=



000
FTUS43 KLBF 271800 AAA
TAFLBF
TAF AMD
KLBF 271836Z 2719/2818 12007KT P6SM SCT050 BKN100
      TEMPO 2719/2721 11010KT P6SM -SHRA BKN010
     FM272300 12009KT P6SM VCTS SCT015 BKN050CB
      TEMPO 2800/2804 2SM +TSRA SCT015 OVC050CB
     FM280800 34005KT P6SM BKN050=



000
FTUS43 KLBF 271700
TAFLBF
TAF
KLBF 271726Z 2718/2818 12007KT P6SM SCT050 BKN100
     FM272300 12009KT P6SM VCTS SCT015 BKN050CB
      TEMPO 2800/2804 2SM +TSRA SCT015 OVC050CB
     FM280800 34005KT P6SM BKN050=



000
FTUS43 KLBF 271700
TAFVTN
TAF
KVTN 271726Z 2718/2818 12007KT P6SM VCSH SCT015 BKN050
     FM280100 11008KT 2SM +TSRA SCT015 BKN030CB
     FM280500 34006KT P6SM VCSH SCT015 BKN030
     FM280800 01008KT P6SM BKN050=



000
FTUS43 KLBF 271500 AAA
TAFLBF
TAF AMD
KLBF 271533Z 2716/2812 12007KT P6SM SCT050 BKN080
     FM272100 12009KT 2SM +TSRA SCT015 OVC050CB
     FM280100 11009KT P6SM -SHRA OVC050
     FM280300 10005KT P6SM BKN050=



000
FTUS43 KLBF 271300 AAA
TAFVTN
TAF AMD
KVTN 271342Z 2714/2812 14006KT P6SM BKN008
     FM271900 11009KT 5SM SHRA SCT015 OVC025
     FM280600 08006KT P6SM SCT015 OVC025=



000
FTUS43 KLBF 271100
TAFVTN
TAF
KVTN 271120Z 2712/2812 14006KT P6SM OVC005
     FM271400 14006KT P6SM OVC008
      TEMPO 2716/2719 5SM SHRA SCT008 BKN025
     FM271900 11009KT 5SM SHRA SCT015 OVC025
     FM280600 08006KT P6SM SCT015 OVC025=



000
FTUS43 KLBF 271100
TAFLBF
TAF
KLBF 271120Z 2712/2812 12005KT P6SM OVC100
     FM271600 12007KT P6SM SCT050 BKN080
      TEMPO 2717/2721 5SM TSRA BKN050CB
     FM272100 12009KT 2SM +TSRA SCT015 OVC050CB
     FM280100 11009KT P6SM -SHRA OVC050
     FM280300 10005KT P6SM BKN050=



000
FTUS43 KLBF 271100 AAB
TAFVTN
TAF AMD
KVTN 271102Z 2711/2806 15007KT P6SM OVC004
     FM271500 15009KT 5SM RA OVC008
      TEMPO 2715/2718 3SM +TSRA SCT008 BKN025CB
     FM271800 15009KT 3SM RA BKN008 OVC015=



000
FTUS43 KLBF 270900 AAA
TAFLBF
TAF AMD
KLBF 270908Z 2709/2806 12005KT P6SM -SHRA OVC100
     FM271200 12010KT P6SM BKN016
     FM271600 16011KT P6SM OVC018
     FM272100 VRB22G32KT 2SM +TSRA BKN015CB
     FM280100 11009KT P6SM BKN025=



    US Dept of Commerce
    National Oceanic and Atmospheric Administration
    National Weather Service
    1325 East West Highway
    Silver Spring, MD 20910
    Page Author: NWS Internet Services Team
Disclaimer
Information Quality
Credits
Glossary
Privacy Policy
Freedom of Information Act (FOIA)
About Us
Career Opportunities